createdAt,value
2017-05-19T00:00:46.715Z,23.20
2017-05-19T00:01:43.669Z,23.08
2017-05-19T00:02:40.622Z,23.05
2017-05-19T00:03:37.587Z,21.62
2017-05-19T00:04:34.537Z,27.15
2017-05-19T00:05:31.488Z,25.45
2017-05-19T00:06:28.458Z,21.88
2017-05-19T00:07:25.407Z,25.80
2017-05-19T00:08:22.364Z,31.27
2017-05-19T00:09:19.318Z,25.73
2017-05-19T00:10:16.282Z,28.87
2017-05-19T00:11:13.247Z,31.87
2017-05-19T00:12:10.226Z,29.90
2017-05-19T00:13:07.182Z,25.88
2017-05-19T00:14:04.131Z,27.53
2017-05-19T00:15:01.080Z,25.48
2017-05-19T00:15:58.038Z,29.63
2017-05-19T00:16:54.991Z,26.50
2017-05-19T00:17:51.975Z,26.42
2017-05-19T00:18:48.922Z,35.83
2017-05-19T00:19:45.891Z,28.07
2017-05-19T00:20:42.842Z,36.23
2017-05-19T00:21:39.805Z,36.52
2017-05-19T00:22:36.761Z,36.87
2017-05-19T00:23:33.743Z,37.02
2017-05-19T00:24:30.706Z,36.18
2017-05-19T00:25:27.662Z,37.33
2017-05-19T00:26:24.618Z,33.55
2017-05-19T00:27:21.570Z,34.52
2017-05-19T00:28:18.525Z,34.73
2017-05-19T00:29:15.518Z,30.30
2017-05-19T00:30:12.475Z,39.28
2017-05-19T00:31:09.426Z,37.47
2017-05-19T00:32:06.389Z,41.13
2017-05-19T00:33:03.346Z,35.72
2017-05-19T00:34:00.297Z,35.93
2017-05-19T00:34:57.265Z,40.58
2017-05-19T00:35:54.223Z,38.73
2017-05-19T00:36:51.208Z,46.48
2017-05-19T00:37:48.177Z,48.80
2017-05-19T00:38:45.140Z,43.40
2017-05-19T00:39:42.086Z,49.05
2017-05-19T00:40:39.057Z,45.37
2017-05-19T00:41:36.012Z,45.82
2017-05-19T00:42:32.966Z,49.42
2017-05-19T00:43:29.935Z,48.25
2017-05-19T00:44:26.879Z,50.53
2017-05-19T00:45:23.834Z,47.40
2017-05-19T00:46:20.812Z,42.65
2017-05-19T00:47:17.770Z,49.95
2017-05-19T00:48:14.730Z,42.13
2017-05-19T00:49:11.687Z,45.95
2017-05-19T00:50:08.655Z,46.45
2017-05-19T00:51:05.619Z,46.97
2017-05-19T00:52:02.591Z,43.23
2017-05-19T00:52:59.554Z,43.70
2017-05-19T00:53:56.520Z,46.10
2017-05-19T00:54:53.470Z,43.27
2017-05-19T00:55:50.429Z,42.87
2017-05-19T00:56:47.376Z,39.17
2017-05-19T00:57:44.354Z,39.15
2017-05-19T00:58:41.315Z,46.73
2017-05-19T00:59:38.269Z,42.95
2017-05-19T01:00:35.231Z,43.18
2017-05-19T01:01:32.190Z,42.55
2017-05-19T01:02:29.150Z,40.05
2017-05-19T01:03:26.131Z,43.87
2017-05-19T01:04:23.099Z,45.58
2017-05-19T01:05:20.054Z,45.60
2017-05-19T01:06:17.001Z,38.57
2017-05-19T01:07:13.958Z,42.37
2017-05-19T01:08:10.915Z,40.35
2017-05-19T01:09:07.886Z,37.55
2017-05-19T01:10:04.838Z,40.63
2017-05-19T01:11:01.801Z,40.48
2017-05-19T01:11:58.757Z,39.67
2017-05-19T01:12:55.721Z,38.85
2017-05-19T01:13:52.678Z,33.53
2017-05-19T01:14:49.651Z,38.52
2017-05-19T01:15:46.610Z,39.52
2017-05-19T01:16:43.562Z,37.90
2017-05-19T01:17:40.522Z,36.80
2017-05-19T01:18:37.473Z,37.48
2017-05-19T01:19:34.463Z,35.92
2017-05-19T01:20:31.432Z,36.58
2017-05-19T01:21:28.379Z,38.30
2017-05-19T01:22:25.339Z,42.83
2017-05-19T01:23:22.301Z,37.40
2017-05-19T01:24:19.252Z,40.03
2017-05-19T01:25:16.199Z,45.28
2017-05-19T01:26:13.171Z,37.87
2017-05-19T01:27:10.118Z,48.50
2017-05-19T01:28:07.097Z,46.48
2017-05-19T01:29:04.057Z,43.57
2017-05-19T01:30:01.010Z,38.70
2017-05-19T01:30:57.962Z,42.38
2017-05-19T01:31:54.946Z,44.22
2017-05-19T01:32:51.905Z,43.82
2017-05-19T01:33:48.851Z,44.12
2017-05-19T01:34:45.807Z,47.63
2017-05-19T01:35:42.754Z,40.87
2017-05-19T01:36:39.710Z,43.22
2017-05-19T01:37:36.682Z,42.52
2017-05-19T01:38:33.630Z,42.33
2017-05-19T01:39:30.596Z,40.98
2017-05-19T01:40:27.542Z,43.10
2017-05-19T01:41:24.503Z,40.78
2017-05-19T01:42:21.463Z,37.90
2017-05-19T01:43:18.439Z,43.03
2017-05-19T01:44:15.386Z,41.38
2017-05-19T01:45:12.345Z,42.58
2017-05-19T01:46:09.298Z,40.87
2017-05-19T01:47:06.247Z,38.47
2017-05-19T01:48:03.203Z,43.23
2017-05-19T01:49:00.228Z,41.75
2017-05-19T01:49:57.166Z,39.90
2017-05-19T01:50:54.128Z,39.28
2017-05-19T01:51:51.095Z,45.52
2017-05-19T02:13:59.725Z,33.15
2017-05-19T02:14:56.685Z,33.87
2017-05-19T02:15:53.633Z,31.95
2017-05-19T02:16:50.596Z,35.45
2017-05-19T02:17:47.559Z,28.63
2017-05-19T02:18:44.515Z,26.03
2017-05-19T02:19:41.494Z,29.88
2017-05-19T02:20:38.454Z,24.02
2017-05-19T02:21:35.411Z,26.28
2017-05-19T02:22:32.485Z,25.68
2017-05-19T02:23:29.439Z,24.63
2017-05-19T02:24:26.406Z,27.42
2017-05-19T02:25:23.382Z,25.53
2017-05-19T02:26:20.341Z,26.08
2017-05-19T02:27:17.307Z,24.72
2017-05-19T02:28:14.270Z,24.95
2017-05-19T02:29:11.222Z,21.23
2017-05-19T02:30:08.182Z,23.78
2017-05-19T02:31:05.167Z,19.40
2017-05-19T02:32:02.118Z,22.42
2017-05-19T02:32:59.076Z,21.10
2017-05-19T02:33:56.031Z,18.63
2017-05-19T02:34:52.983Z,18.20
2017-05-19T02:35:50.017Z,17.68
2017-05-19T02:36:46.990Z,16.10
2017-05-19T02:37:43.947Z,18.05
2017-05-19T02:38:40.902Z,18.62
2017-05-19T02:39:37.867Z,14.23
2017-05-19T02:40:34.838Z,14.50
2017-05-19T02:41:31.799Z,15.37
2017-05-19T02:42:28.776Z,15.80
2017-05-19T02:43:25.732Z,18.82
2017-05-19T02:44:22.687Z,17.95
2017-05-19T02:45:19.658Z,17.17
2017-05-19T02:46:16.616Z,17.18
2017-05-19T02:47:13.574Z,18.98
2017-05-19T02:48:10.561Z,16.05
2017-05-19T02:49:07.523Z,15.82
2017-05-19T02:50:04.482Z,17.33
2017-05-19T02:51:01.430Z,14.22
2017-05-19T02:51:58.440Z,18.75
2017-05-19T02:52:55.371Z,20.17
2017-05-19T02:53:52.334Z,16.68
2017-05-19T02:54:49.693Z,17.92
2017-05-19T02:55:46.635Z,16.10
2017-05-19T02:56:43.593Z,18.55
2017-05-19T02:57:40.553Z,17.62
2017-05-19T02:58:37.527Z,19.98
2017-05-19T02:59:34.490Z,23.12
2017-05-19T03:00:31.442Z,19.97
2017-05-19T03:01:28.401Z,18.22
2017-05-19T03:02:25.350Z,20.35
2017-05-19T03:03:22.315Z,20.03
2017-05-19T03:04:19.279Z,16.48
2017-05-19T03:05:16.279Z,16.87
2017-05-19T03:06:13.255Z,17.22
2017-05-19T03:07:10.212Z,16.42
2017-05-19T03:08:07.178Z,14.00
2017-05-19T03:09:04.150Z,17.52
2017-05-19T03:10:01.133Z,12.55
2017-05-19T03:10:58.109Z,16.27
2017-05-19T03:11:55.214Z,10.30
2017-05-19T03:12:52.190Z,10.48
2017-05-19T03:13:49.150Z,12.98
2017-05-19T03:14:46.109Z,11.00
2017-05-19T03:15:43.073Z,10.92
2017-05-19T03:16:40.049Z,11.07
2017-05-19T03:17:37.023Z,10.97
2017-05-19T03:18:33.971Z,11.45
2017-05-19T03:19:30.931Z,8.97
2017-05-19T03:20:27.901Z,8.77
2017-05-19T03:21:24.863Z,9.92
2017-05-19T03:22:21.852Z,7.30
2017-05-19T03:23:18.798Z,8.75
2017-05-19T03:24:15.757Z,7.45
2017-05-19T03:25:12.711Z,8.90
2017-05-19T03:26:09.663Z,7.70
2017-05-19T03:27:06.630Z,7.33
2017-05-19T03:28:03.599Z,10.88
2017-05-19T03:29:00.559Z,8.93
2017-05-19T03:29:57.518Z,8.20
2017-05-19T03:30:54.483Z,11.18
2017-05-19T03:31:51.438Z,8.12
2017-05-19T03:32:48.544Z,8.42
2017-05-19T03:33:45.529Z,12.27
2017-05-19T03:34:42.491Z,10.65
2017-05-19T03:35:39.467Z,11.60
2017-05-19T03:36:36.408Z,8.20
2017-05-19T03:37:33.378Z,11.93
2017-05-19T03:38:30.336Z,9.97
2017-05-19T03:39:27.306Z,11.08
2017-05-19T03:40:24.313Z,13.08
2017-05-19T03:41:21.285Z,13.15
2017-05-19T03:42:18.238Z,10.12
2017-05-19T03:43:15.187Z,7.97
2017-05-19T03:44:12.144Z,11.53
2017-05-19T03:45:09.130Z,10.37
2017-05-19T03:46:06.098Z,11.28
2017-05-19T03:47:03.050Z,14.27
2017-05-19T03:48:00.006Z,8.82
2017-05-19T03:48:56.958Z,8.78
2017-05-19T03:49:54.478Z,8.80
2017-05-19T03:50:51.486Z,11.32
2017-05-19T03:51:48.426Z,10.25
2017-05-19T03:52:45.465Z,10.60
2017-05-19T03:53:42.427Z,8.85
2017-05-19T03:54:39.401Z,9.92
2017-05-19T03:55:36.352Z,12.47
2017-05-19T03:56:33.314Z,9.87
2017-05-19T03:57:30.289Z,9.42
2017-05-19T03:58:27.247Z,9.12
2017-05-19T03:59:24.203Z,9.17
2017-05-19T04:00:21.179Z,10.52
2017-05-19T04:01:18.136Z,10.30
2017-05-19T04:02:15.117Z,10.55
2017-05-19T04:03:12.077Z,15.45
2017-05-19T04:04:09.047Z,11.30
2017-05-19T04:05:06.011Z,14.95
2017-05-19T04:06:02.960Z,12.35
2017-05-19T04:06:59.922Z,15.32
2017-05-19T04:07:56.906Z,13.00
2017-05-19T04:08:53.895Z,15.57
2017-05-19T04:09:50.855Z,10.73
2017-05-19T04:10:47.817Z,14.28
2017-05-19T04:11:44.788Z,13.58
2017-05-19T04:12:41.762Z,12.10
2017-05-19T04:13:38.768Z,11.70
2017-05-19T04:14:35.747Z,13.42
2017-05-19T04:15:32.710Z,10.60
2017-05-19T04:16:29.700Z,11.93
2017-05-19T04:17:26.669Z,12.55
2017-05-19T04:18:24.069Z,12.87
2017-05-19T04:19:21.057Z,13.70
2017-05-19T04:20:18.022Z,14.72
2017-05-19T04:21:14.966Z,14.33
2017-05-19T04:22:11.939Z,11.75
2017-05-19T04:23:08.903Z,11.92
2017-05-19T04:24:05.854Z,14.37
2017-05-19T04:25:02.827Z,13.53
2017-05-19T04:25:59.779Z,12.00
2017-05-19T04:26:56.765Z,11.87
2017-05-19T04:27:53.712Z,16.45
2017-05-19T04:28:51.337Z,13.92
2017-05-19T04:29:48.286Z,10.33
2017-05-19T04:30:45.297Z,12.28
2017-05-19T04:31:42.260Z,10.42
2017-05-19T04:32:39.230Z,14.73
2017-05-19T04:33:36.221Z,12.32
2017-05-19T04:34:33.189Z,10.95
2017-05-19T04:35:30.150Z,18.03
2017-05-19T04:36:27.159Z,12.18
2017-05-19T04:37:24.114Z,9.83
2017-05-19T04:38:21.082Z,9.80
2017-05-19T04:39:18.040Z,11.47
2017-05-19T04:40:14.994Z,14.93
2017-05-19T04:41:11.966Z,13.17
2017-05-19T04:42:08.950Z,10.43
2017-05-19T04:43:05.907Z,12.53
2017-05-19T04:44:02.872Z,9.62
2017-05-19T04:44:59.827Z,12.50
2017-05-19T04:45:56.815Z,9.98
2017-05-19T04:46:53.768Z,10.17
2017-05-19T04:47:51.521Z,9.52
2017-05-19T04:48:48.662Z,10.53
2017-05-19T04:49:45.615Z,9.53
2017-05-19T04:50:42.609Z,9.95
2017-05-19T04:51:39.554Z,10.20
2017-05-19T04:52:36.551Z,12.47
2017-05-19T04:53:33.547Z,8.27
2017-05-19T04:54:30.511Z,10.25
2017-05-19T04:55:27.483Z,10.32
2017-05-19T04:56:24.448Z,10.38
2017-05-19T04:57:21.410Z,9.65
2017-05-19T04:58:19.183Z,11.83
2017-05-19T04:59:16.170Z,10.70
2017-05-19T05:00:13.134Z,10.23
2017-05-19T05:01:10.481Z,9.27
2017-05-19T05:02:07.436Z,11.57
2017-05-19T05:03:04.430Z,8.37
2017-05-19T05:04:01.398Z,9.78
2017-05-19T05:04:59.298Z,8.53
2017-05-19T05:05:56.250Z,14.47
2017-05-19T05:06:56.170Z,8.42
2017-05-19T05:07:53.387Z,8.80
2017-05-19T05:08:50.357Z,8.27
2017-05-19T05:09:48.757Z,10.17
2017-05-19T05:10:45.763Z,9.20
2017-05-19T05:11:42.728Z,13.08
2017-05-19T05:12:41.998Z,8.82
2017-05-19T05:13:38.963Z,6.68
2017-05-19T05:14:37.131Z,8.22
2017-05-19T05:15:35.277Z,6.98
2017-05-19T05:16:32.261Z,7.00
2017-05-19T05:17:30.271Z,7.60
2017-05-19T05:18:31.569Z,9.12
2017-05-19T05:19:28.550Z,7.77
2017-05-19T05:20:25.515Z,7.02
2017-05-19T05:21:23.712Z,10.30
2017-05-19T05:22:21.936Z,8.43
2017-05-19T05:23:18.902Z,6.90
2017-05-19T05:24:15.874Z,7.55
2017-05-19T05:25:12.864Z,7.12
2017-05-19T05:26:09.827Z,6.97
2017-05-19T05:27:07.647Z,11.93
2017-05-19T05:28:04.661Z,6.95
2017-05-19T05:29:01.618Z,6.52
2017-05-19T05:29:58.592Z,8.37
2017-05-19T05:30:56.378Z,6.57
2017-05-19T05:31:54.510Z,7.02
2017-05-19T05:32:52.156Z,5.28
2017-05-19T05:33:49.327Z,8.25
2017-05-19T05:34:46.970Z,6.30
2017-05-19T05:35:43.928Z,6.10
2017-05-19T05:36:40.878Z,6.78
2017-05-19T05:37:37.844Z,8.13
2017-05-19T05:38:34.819Z,9.87
2017-05-19T05:39:31.803Z,7.93
2017-05-19T05:40:28.789Z,6.03
2017-05-19T05:41:26.571Z,5.75
2017-05-19T05:42:23.535Z,6.30
2017-05-19T05:43:20.501Z,10.27
2017-05-19T05:44:17.443Z,7.13
2017-05-19T05:45:14.422Z,5.67
2017-05-19T05:46:11.378Z,11.87
2017-05-19T05:47:08.458Z,7.30
2017-05-19T05:48:05.432Z,8.08
2017-05-19T05:49:02.435Z,9.20
2017-05-19T05:49:59.409Z,10.68
2017-05-19T05:50:56.381Z,6.80
2017-05-19T05:51:53.459Z,6.20
2017-05-19T05:52:50.423Z,6.98
2017-05-19T05:53:47.828Z,6.37
2017-05-19T05:54:44.775Z,9.27
2017-05-19T05:55:41.748Z,9.85
2017-05-19T05:56:38.725Z,8.38
2017-05-19T05:57:35.699Z,8.17
2017-05-19T05:58:32.654Z,5.88
2017-05-19T05:59:29.711Z,5.70
2017-05-19T06:00:26.678Z,5.12
2017-05-19T06:01:23.626Z,8.98
2017-05-19T06:02:20.610Z,7.32
2017-05-19T06:03:17.555Z,7.68
2017-05-19T06:04:14.529Z,7.28
2017-05-19T06:05:11.485Z,9.57
2017-05-19T06:06:08.447Z,6.57
2017-05-19T06:07:05.400Z,6.90
2017-05-19T06:08:02.386Z,8.43
2017-05-19T06:08:59.380Z,8.32
2017-05-19T06:09:56.337Z,10.33
2017-05-19T06:10:53.296Z,6.47
2017-05-19T06:11:50.263Z,6.43
2017-05-19T06:12:47.225Z,6.92
2017-05-19T06:13:44.195Z,7.65
2017-05-19T06:14:41.149Z,7.03
2017-05-19T06:15:38.098Z,6.37
2017-05-19T06:16:35.051Z,8.15
2017-05-19T06:17:32.017Z,7.48
2017-05-19T06:18:28.971Z,8.27
2017-05-19T06:19:25.957Z,6.63
2017-05-19T06:20:22.921Z,7.03
2017-05-19T06:21:19.887Z,7.88
2017-05-19T06:22:16.839Z,6.73
2017-05-19T06:23:13.810Z,6.32
2017-05-19T06:24:10.758Z,8.58
2017-05-19T06:25:07.736Z,8.27
2017-05-19T06:26:04.687Z,6.80
2017-05-19T06:27:01.650Z,7.78
2017-05-19T06:27:58.602Z,8.45
2017-05-19T06:28:55.566Z,9.70
2017-05-19T06:29:52.515Z,11.13
2017-05-19T06:30:49.491Z,8.00
2017-05-19T06:31:46.446Z,12.35
2017-05-19T06:32:43.407Z,11.18
2017-05-19T06:33:40.370Z,11.70
2017-05-19T06:34:37.347Z,7.02
2017-05-19T06:35:34.315Z,8.03
2017-05-19T06:36:31.303Z,10.75
2017-05-19T06:37:28.261Z,8.35
2017-05-19T06:38:25.226Z,6.32
2017-05-19T06:39:22.180Z,6.72
2017-05-19T06:40:19.154Z,8.18
2017-05-19T06:41:16.121Z,6.97
2017-05-19T06:42:13.081Z,6.78
2017-05-19T06:43:10.047Z,9.08
2017-05-19T06:44:06.991Z,9.63
2017-05-19T06:45:03.952Z,10.50
2017-05-19T06:46:00.922Z,5.83
2017-05-19T06:46:57.922Z,6.93
2017-05-19T06:47:54.887Z,9.15
2017-05-19T06:48:51.838Z,5.50
2017-05-19T06:49:48.798Z,9.90
2017-05-19T06:50:45.739Z,9.58
2017-05-19T06:51:42.691Z,7.60
2017-05-19T06:52:39.675Z,6.82
2017-05-19T06:53:36.618Z,5.23
2017-05-19T06:54:33.579Z,8.85
2017-05-19T06:55:30.530Z,7.02
2017-05-19T06:56:27.487Z,5.72
2017-05-19T06:57:24.443Z,8.32
2017-05-19T06:58:21.411Z,6.68
2017-05-19T06:59:18.358Z,10.33
2017-05-19T07:00:15.341Z,9.23
2017-05-19T07:01:12.299Z,8.38
2017-05-19T07:02:09.249Z,7.20
2017-05-19T07:03:06.200Z,8.72
2017-05-19T07:04:03.190Z,8.37
2017-05-19T07:05:00.146Z,8.75
2017-05-19T07:05:57.109Z,6.72
2017-05-19T07:06:54.054Z,9.77
2017-05-19T07:07:51.010Z,8.85
2017-05-19T07:08:47.969Z,8.45
2017-05-19T07:09:44.938Z,7.72
2017-05-19T07:10:41.951Z,9.13
2017-05-19T07:11:38.910Z,9.35
2017-05-19T07:12:35.866Z,7.52
2017-05-19T07:13:32.899Z,7.10
2017-05-19T07:14:29.846Z,10.23
2017-05-19T07:15:26.840Z,7.93
2017-05-19T07:16:23.794Z,10.85
2017-05-19T07:17:20.763Z,14.42
2017-05-19T07:18:17.723Z,7.22
2017-05-19T07:19:14.695Z,6.17
2017-05-19T07:20:11.638Z,9.12
2017-05-19T07:21:08.863Z,11.20
2017-05-19T07:22:05.822Z,7.27
2017-05-19T07:23:02.782Z,7.42
2017-05-19T07:23:59.799Z,10.53
2017-05-19T07:24:56.726Z,6.83
2017-05-19T07:25:53.686Z,9.25
2017-05-19T07:26:50.644Z,11.10
2017-05-19T07:27:47.759Z,9.70
2017-05-19T07:28:44.706Z,9.68
2017-05-19T07:29:41.680Z,7.83
2017-05-19T07:30:38.638Z,7.85
2017-05-19T07:31:35.607Z,9.23
2017-05-19T07:32:32.554Z,6.25
2017-05-19T07:33:29.518Z,7.73
2017-05-19T07:34:26.511Z,11.92
2017-05-19T07:35:23.481Z,9.03
2017-05-19T07:36:20.455Z,8.57
2017-05-19T07:37:17.416Z,11.33
2017-05-19T07:38:14.378Z,9.55
2017-05-19T07:39:11.331Z,8.13
2017-05-19T07:40:08.306Z,13.35
2017-05-19T07:41:05.255Z,9.43
2017-05-19T07:42:02.227Z,12.43
2017-05-19T07:42:59.193Z,16.85
2017-05-19T07:43:56.327Z,12.50
2017-05-19T07:44:53.281Z,10.17
2017-05-19T07:45:50.243Z,12.68
2017-05-19T07:46:47.208Z,13.15
2017-05-19T07:47:44.187Z,10.47
2017-05-19T07:48:41.135Z,12.33
2017-05-19T07:49:38.090Z,11.50
2017-05-19T07:50:35.046Z,10.30
2017-05-19T07:51:32.018Z,12.62
2017-05-19T07:52:28.970Z,11.72
2017-05-19T07:53:25.957Z,10.45
2017-05-19T07:54:22.910Z,10.52
2017-05-19T07:55:19.911Z,11.13
2017-05-19T07:56:16.866Z,10.00
2017-05-19T07:57:13.823Z,10.43
2017-05-19T07:58:10.815Z,12.98
2017-05-19T07:59:07.786Z,12.70
2017-05-19T08:00:04.750Z,12.25
2017-05-19T08:01:01.742Z,9.82
2017-05-19T08:01:58.701Z,11.27
2017-05-19T08:02:55.687Z,12.82
2017-05-19T08:03:52.646Z,11.87
2017-05-19T08:04:50.046Z,12.77
2017-05-19T08:05:47.027Z,12.07
2017-05-19T08:06:44.015Z,12.80
2017-05-19T08:07:40.979Z,14.00
2017-05-19T08:08:37.950Z,12.18
2017-05-19T08:09:34.921Z,11.40
2017-05-19T08:10:31.883Z,11.87
2017-05-19T08:11:28.855Z,13.33
2017-05-19T08:12:25.836Z,17.38
2017-05-19T08:13:22.815Z,11.70
2017-05-19T08:14:19.771Z,18.18
2017-05-19T08:15:16.753Z,12.98
2017-05-19T08:16:13.704Z,13.80
2017-05-19T08:17:10.658Z,18.55
2017-05-19T08:18:07.650Z,16.38
2017-05-19T08:19:04.878Z,11.47
2017-05-19T08:20:01.846Z,15.38
2017-05-19T08:20:58.803Z,16.30
2017-05-19T08:21:55.755Z,14.35
2017-05-19T08:22:52.720Z,16.60
2017-05-19T08:23:50.307Z,16.17
2017-05-19T08:24:47.275Z,15.73
2017-05-19T08:25:44.236Z,15.00
2017-05-19T08:26:41.185Z,15.37
2017-05-19T08:27:38.143Z,14.78
2017-05-19T08:28:35.103Z,16.30
2017-05-19T08:29:32.078Z,20.27
2017-05-19T08:30:29.033Z,15.92
2017-05-19T08:31:25.987Z,20.10
2017-05-19T08:32:22.943Z,18.83
2017-05-19T08:33:19.905Z,17.85
2017-05-19T08:34:16.869Z,21.65
2017-05-19T08:35:13.853Z,18.40
2017-05-19T08:36:10.828Z,17.05
2017-05-19T08:37:07.779Z,20.90
2017-05-19T08:38:04.753Z,22.23
2017-05-19T08:39:01.724Z,20.28
2017-05-19T08:39:58.714Z,18.20
2017-05-19T08:40:55.671Z,17.67
2017-05-19T08:41:52.657Z,18.95
2017-05-19T08:42:49.635Z,21.47
2017-05-19T08:43:46.585Z,18.77
2017-05-19T08:44:43.546Z,26.17
2017-05-19T08:45:40.499Z,18.53
2017-05-19T08:46:37.461Z,18.27
2017-05-19T08:47:34.434Z,19.85
2017-05-19T08:48:31.416Z,18.60
2017-05-19T08:49:28.368Z,19.93
2017-05-19T08:50:25.445Z,16.37
2017-05-19T08:51:22.410Z,18.43
2017-05-19T08:52:19.359Z,19.05
2017-05-19T08:53:16.313Z,16.57
2017-05-19T08:54:13.290Z,16.18
2017-05-19T08:55:10.263Z,15.05
2017-05-19T08:56:07.212Z,17.73
2017-05-19T08:57:04.179Z,19.98
2017-05-19T08:58:01.127Z,20.25
2017-05-19T08:58:58.088Z,14.85
2017-05-19T08:59:55.074Z,18.65
2017-05-19T09:00:52.027Z,13.98
2017-05-19T09:01:48.977Z,13.80
2017-05-19T09:02:45.947Z,15.48
2017-05-19T09:03:42.898Z,14.23
2017-05-19T09:04:39.858Z,13.15
2017-05-19T09:05:36.832Z,15.52
2017-05-19T09:06:33.782Z,10.10
2017-05-19T09:07:30.735Z,12.88
2017-05-19T09:08:27.687Z,13.87
2017-05-19T09:09:24.664Z,11.90
2017-05-19T09:10:21.622Z,11.18
2017-05-19T09:11:18.611Z,9.07
2017-05-19T09:12:15.573Z,10.73
2017-05-19T09:13:12.538Z,13.30
2017-05-19T09:14:09.523Z,11.70
2017-05-19T09:15:06.470Z,12.58
2017-05-19T09:16:03.422Z,15.75
2017-05-19T09:17:00.402Z,9.93
2017-05-19T09:17:57.485Z,10.68
2017-05-19T09:18:54.425Z,9.37
2017-05-19T09:19:51.389Z,13.62
2017-05-19T09:20:48.351Z,11.97
2017-05-19T09:21:45.303Z,11.65
2017-05-19T09:22:42.280Z,14.47
2017-05-19T09:23:39.254Z,11.72
2017-05-19T09:24:36.210Z,10.62
2017-05-19T09:25:33.203Z,16.08
2017-05-19T09:26:30.166Z,12.32
2017-05-19T09:27:27.130Z,11.45
2017-05-19T09:28:24.083Z,13.22
2017-05-19T09:29:21.051Z,11.05
2017-05-19T09:30:18.006Z,11.22
2017-05-19T09:31:14.974Z,12.83
2017-05-19T09:32:11.933Z,11.82
2017-05-19T09:33:08.940Z,12.77
2017-05-19T09:34:05.891Z,14.30
2017-05-19T09:35:02.853Z,10.42
2017-05-19T09:35:59.814Z,13.43
2017-05-19T09:36:56.796Z,12.77
2017-05-19T09:37:53.753Z,10.97
2017-05-19T09:38:50.709Z,12.12
2017-05-19T09:39:47.670Z,11.10
2017-05-19T09:40:44.725Z,11.23
2017-05-19T09:41:41.654Z,11.02
2017-05-19T09:42:38.626Z,12.28
2017-05-19T09:43:35.571Z,18.95
2017-05-19T09:44:32.538Z,13.45
2017-05-19T09:45:29.504Z,12.93
2017-05-19T09:46:26.458Z,15.57
2017-05-19T09:47:23.434Z,13.25
2017-05-19T09:48:20.385Z,11.32
2017-05-19T09:49:17.347Z,13.12
2017-05-19T09:50:14.302Z,12.90
2017-05-19T09:51:11.260Z,14.75
2017-05-19T09:52:08.224Z,12.98
2017-05-19T09:53:05.217Z,11.38
2017-05-19T09:54:02.179Z,11.58
2017-05-19T09:54:59.151Z,10.98
2017-05-19T09:55:56.103Z,12.67
2017-05-19T09:56:53.051Z,13.67
2017-05-19T09:57:50.338Z,12.10
2017-05-19T09:58:47.293Z,14.78
2017-05-19T09:59:44.267Z,12.80
2017-05-19T10:00:41.246Z,15.78
2017-05-19T10:01:38.195Z,12.13
2017-05-19T10:02:35.151Z,11.87
2017-05-19T10:03:32.119Z,12.57
2017-05-19T10:04:29.077Z,10.68
2017-05-19T10:05:26.036Z,13.47
2017-05-19T10:06:23.002Z,15.22
2017-05-19T10:07:19.975Z,12.17
2017-05-19T10:08:17.159Z,13.77
2017-05-19T10:09:14.132Z,14.88
2017-05-19T10:10:11.087Z,14.70
2017-05-19T10:11:08.051Z,15.73
2017-05-19T10:12:05.132Z,13.10
2017-05-19T10:13:02.094Z,13.47
2017-05-19T10:13:59.047Z,13.28
2017-05-19T10:14:56.010Z,12.82
2017-05-19T10:15:52.970Z,12.43
2017-05-19T10:16:49.926Z,14.38
2017-05-19T10:17:46.895Z,12.38
2017-05-19T10:18:44.652Z,14.00
2017-05-19T10:19:41.602Z,13.27
2017-05-19T10:20:38.559Z,11.77
2017-05-19T10:21:35.519Z,18.25
2017-05-19T10:22:32.502Z,11.68
2017-05-19T10:23:29.458Z,13.67
2017-05-19T10:24:26.420Z,12.90
2017-05-19T10:25:23.377Z,11.95
2017-05-19T10:26:20.348Z,14.02
2017-05-19T10:27:17.304Z,11.82
2017-05-19T10:28:14.280Z,14.32
2017-05-19T10:29:11.232Z,11.85
2017-05-19T10:30:08.201Z,17.37
2017-05-19T10:31:05.152Z,13.32
2017-05-19T10:32:02.099Z,14.75
2017-05-19T10:32:59.059Z,9.75
2017-05-19T10:33:56.035Z,14.50
2017-05-19T10:34:52.987Z,10.23
2017-05-19T10:35:50.046Z,12.30
2017-05-19T10:36:47.000Z,12.23
2017-05-19T10:37:43.957Z,13.55
2017-05-19T10:38:40.922Z,10.45
2017-05-19T10:39:37.904Z,11.72
2017-05-19T10:40:34.847Z,12.72
2017-05-19T10:41:31.810Z,11.05
2017-05-19T10:42:28.792Z,14.98
2017-05-19T10:43:25.766Z,13.53
2017-05-19T10:44:22.730Z,11.20
2017-05-19T10:45:19.788Z,13.18
2017-05-19T10:46:16.762Z,15.50
2017-05-19T10:47:13.720Z,10.40
2017-05-19T10:48:10.685Z,14.03
2017-05-19T10:49:07.644Z,12.15
2017-05-19T10:50:04.616Z,13.70
2017-05-19T10:51:03.135Z,12.08
2017-05-19T10:52:00.123Z,10.65
2017-05-19T10:52:57.073Z,10.20
2017-05-19T10:53:54.027Z,13.63
2017-05-19T10:54:50.993Z,12.48
2017-05-19T10:55:47.953Z,10.90
2017-05-19T10:56:44.930Z,12.73
2017-05-19T10:57:41.894Z,14.52
2017-05-19T10:58:38.850Z,12.05
2017-05-19T10:59:35.809Z,12.37
2017-05-19T11:00:32.776Z,17.30
2017-05-19T11:01:29.731Z,11.85
2017-05-19T11:02:26.714Z,15.40
2017-05-19T11:03:23.676Z,12.22
2017-05-19T11:04:20.631Z,10.65
2017-05-19T11:05:17.596Z,12.02
2017-05-19T11:06:14.563Z,11.65
2017-05-19T11:07:11.534Z,11.92
2017-05-19T11:08:08.525Z,11.60
2017-05-19T11:09:05.525Z,11.37
2017-05-19T11:10:02.487Z,9.78
2017-05-19T11:10:59.455Z,10.62
2017-05-19T11:11:56.402Z,18.15
2017-05-19T11:12:53.368Z,10.38
2017-05-19T11:13:50.342Z,14.22
2017-05-19T11:14:47.529Z,14.68
2017-05-19T11:15:44.520Z,14.92
2017-05-19T11:16:41.470Z,17.35
2017-05-19T11:17:38.436Z,12.58
2017-05-19T11:18:35.395Z,15.27
2017-05-19T11:19:32.415Z,11.60
2017-05-19T11:20:29.450Z,9.88
2017-05-19T11:21:26.412Z,11.68
2017-05-19T11:22:23.391Z,14.03
2017-05-19T11:23:20.361Z,10.40
2017-05-19T11:24:17.538Z,12.25
2017-05-19T11:25:14.517Z,11.30
2017-05-19T11:26:11.483Z,15.88
2017-05-19T11:27:08.476Z,11.20
2017-05-19T11:28:05.443Z,13.07
2017-05-19T11:29:02.417Z,14.25
2017-05-19T11:29:59.390Z,10.63
2017-05-19T11:30:57.137Z,13.20
2017-05-19T11:31:54.108Z,14.33
2017-05-19T11:32:51.062Z,15.28
2017-05-19T11:33:48.063Z,12.80
2017-05-19T11:34:45.024Z,10.95
2017-05-19T11:35:41.991Z,14.83
2017-05-19T11:36:38.972Z,11.33
2017-05-19T11:37:35.927Z,16.63
2017-05-19T11:38:32.934Z,13.52
2017-05-19T11:39:29.906Z,18.58
2017-05-19T11:40:26.875Z,11.48
2017-05-19T11:41:23.847Z,13.38
2017-05-19T11:42:20.802Z,12.23
2017-05-19T11:43:17.762Z,15.80
2017-05-19T11:44:14.713Z,14.02
2017-05-19T11:45:11.671Z,10.47
2017-05-19T11:46:08.636Z,14.60
2017-05-19T11:47:05.627Z,16.72
2017-05-19T11:48:02.591Z,11.97
2017-05-19T11:48:59.633Z,12.83
2017-05-19T11:49:56.582Z,13.52
2017-05-19T11:50:53.563Z,13.57
2017-05-19T11:51:50.554Z,12.77
2017-05-19T11:52:47.505Z,13.38
2017-05-19T11:53:44.473Z,13.35
2017-05-19T11:54:41.455Z,17.62
2017-05-19T11:55:38.424Z,13.97
2017-05-19T11:56:35.388Z,15.93
2017-05-19T11:57:32.358Z,17.22
2017-05-19T11:58:29.314Z,12.82
2017-05-19T11:59:26.284Z,14.42
2017-05-19T12:00:23.258Z,14.97
2017-05-19T12:01:20.269Z,12.18
2017-05-19T12:02:17.227Z,13.50
2017-05-19T12:03:14.198Z,11.13
2017-05-19T12:04:11.174Z,12.40
2017-05-19T12:05:08.172Z,11.55
2017-05-19T12:06:05.164Z,16.10
2017-05-19T12:07:02.129Z,11.13
2017-05-19T12:07:59.091Z,14.07
2017-05-19T12:08:56.058Z,14.13
2017-05-19T12:09:53.014Z,15.18
2017-05-19T12:10:49.983Z,17.30
2017-05-19T12:11:46.974Z,12.67
2017-05-19T12:12:43.930Z,12.82
2017-05-19T12:13:40.882Z,14.03
2017-05-19T12:14:37.850Z,14.35
2017-05-19T12:15:34.835Z,15.97
2017-05-19T12:16:31.824Z,13.47
2017-05-19T12:17:28.810Z,14.48
2017-05-19T12:18:25.782Z,15.00
2017-05-19T12:19:22.762Z,11.07
2017-05-19T12:20:19.715Z,11.12
2017-05-19T12:21:16.719Z,9.67
2017-05-19T12:22:13.679Z,12.30
2017-05-19T12:23:10.647Z,9.73
2017-05-19T12:24:07.639Z,10.10
2017-05-19T12:25:04.598Z,8.62
2017-05-19T12:26:01.555Z,9.30
2017-05-19T12:26:58.514Z,9.70
2017-05-19T12:27:55.493Z,9.07
2017-05-19T12:28:52.446Z,10.40
2017-05-19T12:29:49.446Z,9.63
2017-05-19T12:30:46.422Z,8.13
2017-05-19T12:31:43.569Z,11.82
2017-05-19T12:32:40.539Z,7.17
2017-05-19T12:33:37.493Z,6.37
2017-05-19T12:34:34.456Z,9.17
2017-05-19T12:35:31.412Z,5.88
2017-05-19T12:36:28.401Z,5.50
2017-05-19T12:37:25.357Z,5.25
2017-05-19T12:38:22.334Z,5.20
2017-05-19T12:39:19.337Z,5.85
2017-05-19T12:40:16.317Z,7.42
2017-05-19T12:41:13.306Z,5.80
2017-05-19T12:42:10.288Z,5.93